Terminal Aerodrome Forecast
Issued by NWS

Current Version | Previous Version | Text Only | Print | Product List | Glossary Off
Versions: 1 2 3 4 5 6 7 8 9 10 11 12 13 14 15 16 17 18 19 20 21

000
FTUS41 KRLX 241723
TAFCKB
TAF
KCKB 241723Z 2418/2518 22007KT P6SM SCT045
     FM250500 00000KT P6SM VCSH BKN110
     FM250900 VRB03KT P6SM BKN050
     FM251600 21012G18KT P6SM BKN040=

USA.gov is the U.S. government's official web portal to all federal, state and local government web resources and services.